Crestview, FL (32539)

7:35 AM CDT on October 02, 2014 (GMT -0500)
Steeplechase | Change Station
CLOSE
Current Station
Personal Weather Station
Location: Crestview, FL
Elevation: 250 ft
Nearby Weather Stations

Elev 250 ft 30.73 °N, 86.56 °W | Updated 5 seconds ago

Scattered Clouds
Scattered Clouds
70.0 °F
Feels Like 70.0 °F
N
0.0
Wind Variable Wind from SSE
Gusts 1.0 mph

Today
High -- | Low -- °F
--% Chance of Precip.
Yesterday
High -- | Low -- °F
Precip. -- in
6:40 AM 6:30 PM
First Quarter, 58% visible
Pressure 30.04 in
Visibility 6.0 miles
Clouds Scattered Clouds 2400 ft
Dew Point 69 °F
Humidity 96%
Rainfall 0.00 in
Snow Depth Not available.
UV 0 out of 12
Pollen 6.80 out of 12
Ozone Good
PM2.5 Good
Flu Activity Not available.
SPECI KCEW 021213Z AUTO 00000KT 6SM BR SCT024 20/19 A3004 RMK AO2 T02000194

More Conditions Fewer Conditions

Pressure 30.04 in
Visibility 6.0 miles
Clouds Scattered Clouds 2400 ft
Dew Point 69 °F
Humidity 96%
Rainfall 0.00 in
Snow Depth Not available.
UV 0 out of 12
Pollen 6.80 out of 12
Ozone Good
PM2.5 Good
Flu Activity Not available.
SPECI KCEW 021213Z AUTO 00000KT 6SM BR SCT024 20/19 A3004 RMK AO2 T02000194

More Conditions Fewer Conditions

10-Day Weather Forecast

Almanac

Astronomy

Oct. 02, 2014 Rise Set
Actual Time 6:40 AM CDT 6:30 PM CDT
Civil Twilight 6:16 AM CDT 6:54 PM CDT
Nautical Twilight 5:48 AM CDT 7:22 PM CDT
Astronomical Twilight 5:20 AM CDT 7:50 PM CDT
Moon 2:15 PM CDT 12:18 AM CDT
Length of Visible Light 12h 37m
Length of Day
11h 49m
Tomorrow will be 1m 51s shorter.
First Quarter, 58% of the Moon is Illuminated
Today
First Quarter
Oct 8
Full
Oct 15
Last Quarter
Oct 23
New
Oct 30
First Quarter

Today's Extremes

State Highs State Lows

Community

WunderPhotos

Upload Photos

1,758,223 photos uploaded!

WunderBlogs® & News

Nearby

Air Quality

  Air Quality AQ Index Pollutant
Yesterday Good
PM2.5
Yesterday Good
OZONE
Current Good
PM2.5
Current Good
OZONE
Thursday Good
OZONE
Friday Good
OZONE
Saturday Good
OZONE
Sunday Good
OZONE
Monday Good
OZONE

Snow Depth

Station Depth Elevation
No new snow has been reported.

Earthquake Activity

City Distance Mag. Time & Date
No recent earthquake activity has been reported nearby.
Minimum magnitude displayed is 2.5.

Coastal Water Temperatures

Place Temperature
No Stations Reporting

Nearby Weather Stations